Time;durP1;ratioP1;P1;durP2;ratioP2;P2;SDS_P1;SDS_P2;PMS_P1;PMS_P2;Temp;Humidity;BMP_temperature;BMP_pressure;BME280_temperature;BME280_humidity;BME280_pressure;Samples;Min_cycle;Max_cycle;Signal;HPM_P1;HPM_P2
2023/05/29 00:00:32;;;;;;;;;;;;;;;21.66;57.87;100571.97;5057854;28;19912;-81
2023/05/29 00:03:24;;;;;;;;;;;;;;;21.72;57.50;100577.91;5053339;28;19916;-80
2023/05/29 00:06:16;;;;;;;;;;;;;;;21.58;57.28;100586.97;5060787;28;19912;-81
2023/05/29 00:09:08;;;;;;;;;;;;;;;21.59;57.47;100584.97;5058931;28;19912;-80
2023/05/29 00:11:58;;;;;;;;;;;;;;;21.57;57.45;100584.59;5057719;28;19916;-80
2023/05/29 00:14:50;;;;;;;;;;;;;;;21.54;56.67;100586.16;5054792;28;19913;-80
2023/05/29 00:17:39;;;;;;;;;;;;;;;21.58;57.16;100580.66;5054360;28;19925;-81
2023/05/29 00:20:32;;;;;;;;;;;;;;;21.70;57.00;100588.56;5060364;28;20003;-81
2023/05/29 00:23:24;;;;;;;;;;;;;;;21.43;57.19;100590.09;5059234;28;19917;-82
2023/05/29 00:26:16;;;;;;;;;;;;;;;21.30;57.47;100590.47;5065917;28;19917;-82
2023/05/29 00:29:09;;;;;;;;;;;;;;;21.33;57.65;100589.66;5056283;28;19913;-83
2023/05/29 00:32:01;;;;;;;;;;;;;;;21.34;56.62;100585.72;5052962;28;19917;-83
2023/05/29 00:34:53;;;;;;;;;;;;;;;21.30;57.05;100587.69;5049822;28;19913;-83
2023/05/29 00:37:45;;;;;;;;;;;;;;;21.13;57.68;100582.84;5050826;28;19917;-83
2023/05/29 00:40:35;;;;;;;;;;;;;;;21.06;58.52;100595.88;5058286;28;19912;-83
2023/05/29 00:43:27;;;;;;;;;;;;;;;20.96;58.04;100593.84;5054568;28;19913;-82
2023/05/29 00:46:19;;;;;;;;;;;;;;;20.80;59.25;100594.19;5055310;28;20380;-82
2023/05/29 00:49:11;;;;;;;;;;;;;;;20.80;59.30;100599.69;5062684;28;19913;-82
2023/05/29 00:52:01;;;;;;;;;;;;;;;20.93;58.46;100587.13;5072985;28;20303;-82
2023/05/29 00:54:54;;;;;;;;;;;;;;;21.01;58.04;100585.19;5053050;28;19920;-82
2023/05/29 00:57:46;;;;;;;;;;;;;;;21.06;57.71;100593.91;5066525;28;19916;-83
2023/05/29 01:00:38;;;;;;;;;;;;;;;21.07;58.42;100595.50;5052067;28;19912;-82
2023/05/29 01:03:30;;;;;;;;;;;;;;;21.13;57.65;100598.69;5070257;28;19913;-82
2023/05/29 01:06:22;;;;;;;;;;;;;;;21.11;57.97;100598.28;5075909;28;19913;-82
2023/05/29 01:09:15;;;;;;;;;;;;;;;21.19;56.83;100600.69;5056203;28;19917;-82
2023/05/29 01:12:18;;;;;;;;;;;;;;;21.10;57.16;100596.69;5062538;28;19912;-82
2023/05/29 01:15:12;;;;;;;;;;;;;;;21.00;57.57;100603.75;5053749;28;19913;-80
2023/05/29 01:18:08;;;;;;;;;;;;;;;21.00;57.42;100603.75;5058076;28;19921;-82
2023/05/29 01:21:16;;;;;;;;;;;;;;;20.97;58.55;100598.22;5059736;28;19913;-82
2023/05/29 01:24:25;;;;;;;;;;;;;;;20.97;59.02;100595.44;5052879;28;19912;-81
2023/05/29 01:27:18;;;;;;;;;;;;;;;21.22;57.71;100597.16;5061756;28;19913;-81
2023/05/29 01:30:13;;;;;;;;;;;;;;;21.06;58.59;100593.91;5067136;28;19917;-81
2023/05/29 01:33:05;;;;;;;;;;;;;;;20.86;59.51;100600.94;5048545;28;19913;-82
2023/05/29 01:35:57;;;;;;;;;;;;;;;20.68;60.90;100600.81;5045808;28;19913;-82
2023/05/29 01:38:49;;;;;;;;;;;;;;;20.65;60.61;100609.09;5050810;28;19917;-81
2023/05/29 01:41:41;;;;;;;;;;;;;;;20.54;61.64;100606.25;5051729;28;19917;-82
2023/05/29 01:44:33;;;;;;;;;;;;;;;20.86;61.83;100607.25;5057952;28;19912;-81
2023/05/29 01:47:25;;;;;;;;;;;;;;;21.22;60.85;100608.22;5055827;28;19920;-81
2023/05/29 01:50:20;;;;;;;;;;;;;;;21.30;60.35;100607.06;5056271;28;19916;-82
2023/05/29 01:53:11;;;;;;;;;;;;;;;21.40;60.12;100608.25;5072173;28;19913;-82
2023/05/29 01:56:01;;;;;;;;;;;;;;;21.46;59.45;100600.38;5057830;28;19912;-82
2023/05/29 01:58:53;;;;;;;;;;;;;;;21.39;59.63;100595.63;5061545;28;20315;-83
2023/05/29 02:01:45;;;;;;;;;;;;;;;21.32;59.83;100593.63;5051875;28;19913;-82
2023/05/29 02:04:38;;;;;;;;;;;;;;;21.33;59.74;100591.66;5050391;28;19913;-82
2023/05/29 02:07:30;;;;;;;;;;;;;;;21.36;59.69;100595.63;5093246;22;19912;-78
2023/05/29 02:10:22;;;;;;;;;;;;;;;21.42;59.04;100589.31;5028241;28;19920;-77
2023/05/29 02:13:14;;;;;;;;;;;;;;;21.29;58.90;100591.63;5052115;28;19913;-78
2023/05/29 02:16:05;;;;;;;;;;;;;;;21.02;61.25;100595.88;5046894;28;19916;-78
2023/05/29 02:18:55;;;;;;;;;;;;;;;20.77;62.48;100595.75;5053392;28;20380;-77
2023/05/29 02:21:48;;;;;;;;;;;;;;;20.63;62.96;100600.38;5029178;28;19912;-79
2023/05/29 02:24:40;;;;;;;;;;;;;;;20.56;62.98;100592.06;5032348;28;19913;-78
2023/05/29 02:27:32;;;;;;;;;;;;;;;20.25;63.93;100587.88;5038572;28;19912;-78
2023/05/29 02:30:22;;;;;;;;;;;;;;;20.25;64.32;100585.13;5051958;28;19913;-78
2023/05/29 02:33:14;;;;;;;;;;;;;;;20.16;64.52;100585.47;5056251;28;19913;-77
2023/05/29 02:36:05;;;;;;;;;;;;;;;20.19;64.77;100594.94;5041472;28;19913;-77
2023/05/29 02:38:57;;;;;;;;;;;;;;;20.13;65.41;100597.25;5044660;28;20331;-77
2023/05/29 02:41:49;;;;;;;;;;;;;;;20.20;63.99;100599.28;5020517;28;19913;-77
2023/05/29 02:44:42;;;;;;;;;;;;;;;20.20;64.32;100613.09;5041090;28;19913;-77
2023/05/29 02:47:34;;;;;;;;;;;;;;;20.43;63.74;100611.72;5062867;28;19913;-77
2023/05/29 02:50:27;;;;;;;;;;;;;;;20.74;60.46;100615.84;5058037;28;20379;-76
2023/05/29 02:53:16;;;;;;;;;;;;;;;20.53;62.71;100615.72;5056203;28;19913;-76
2023/05/29 02:56:08;;;;;;;;;;;;;;;20.45;63.35;100614.09;5048511;28;20482;-78
2023/05/29 02:58:58;;;;;;;;;;;;;;;20.54;62.90;100616.53;5055132;28;19916;-78
2023/05/29 03:01:47;;;;;;;;;;;;;;;20.52;62.49;100618.91;5047462;28;19991;-78
2023/05/29 03:04:40;;;;;;;;;;;;;;;20.85;60.19;100621.44;5057115;28;20513;-78
2023/05/29 03:07:32;;;;;;;;;;;;;;;21.13;58.81;100613.28;5045203;28;20383;-77
2023/05/29 03:10:24;;;;;;;;;;;;;;;21.14;58.48;100617.66;5060215;28;20291;-78
2023/05/29 03:13:16;;;;;;;;;;;;;;;21.05;58.17;100619.97;5041251;28;20383;-77
2023/05/29 03:16:12;;;;;;;;;;;;;;;21.14;57.40;100614.91;5041852;28;19913;-77
2023/05/29 03:19:04;;;;;;;;;;;;;;;21.25;56.99;100621.25;5049028;28;19917;-77
2023/05/29 03:21:56;;;;;;;;;;;;;;;21.30;55.90;100626.41;5035665;28;19913;-77
2023/05/29 03:24:48;;;;;;;;;;;;;;;21.34;54.76;100623.66;5053788;28;19917;-78
2023/05/29 03:27:40;;;;;;;;;;;;;;;21.36;55.07;100626.84;5052107;28;19913;-79
2023/05/29 03:30:36;;;;;;;;;;;;;;;21.31;55.95;100622.47;5040643;28;20018;-79
2023/05/29 03:33:27;;;;;;;;;;;;;;;21.40;56.46;100635.13;5059152;28;19913;-78
2023/05/29 03:36:34;;;;;;;;;;;;;;;21.41;57.43;100629.22;5041732;28;20372;-78
2023/05/29 03:39:26;;;;;;;;;;;;;;;21.45;57.63;100634.75;5037732;28;19916;-78
2023/05/29 03:42:21;;;;;;;;;;;;;;;21.34;58.93;100627.22;5042380;28;19913;-78
2023/05/29 03:45:13;;;;;;;;;;;;;;;21.42;59.08;100632.78;5046074;28;19912;-78
2023/05/29 03:48:05;;;;;;;;;;;;;;;21.41;58.21;100637.53;5043108;28;20383;-79
2023/05/29 03:50:57;;;;;;;;;;;;;;;21.36;58.85;100635.13;5061629;28;19912;-78
2023/05/29 03:53:52;;;;;;;;;;;;;;;21.44;59.03;100636.72;5038849;28;19913;-78
2023/05/29 03:56:44;;;;;;;;;;;;;;;21.50;59.32;100634.38;5052325;28;20391;-79
2023/05/29 03:59:36;;;;;;;;;;;;;;;21.22;60.83;100630.34;5047153;28;19921;-78
2023/05/29 04:02:28;;;;;;;;;;;;;;;21.09;61.21;100631.84;5057060;28;19912;-78
2023/05/29 04:05:20;;;;;;;;;;;;;;;21.07;60.89;100627.88;5042493;28;19913;-78
2023/05/29 04:08:12;;;;;;;;;;;;;;;21.26;60.44;100631.16;5030390;28;19913;-78
2023/05/29 04:11:04;;;;;;;;;;;;;;;20.96;61.90;100625.06;5050806;28;19913;-77
2023/05/29 04:13:56;;;;;;;;;;;;;;;21.01;62.60;100619.16;5041465;28;20303;-78
2023/05/29 04:16:49;;;;;;;;;;;;;;;21.07;62.04;100631.44;5051984;28;19921;-78
2023/05/29 04:19:41;;;;;;;;;;;;;;;21.13;62.26;100638.16;5044167;28;20378;-78
2023/05/29 04:22:30;;;;;;;;;;;;;;;21.30;61.74;100647.75;5036507;28;19912;-78
2023/05/29 04:25:22;;;;;;;;;;;;;;;21.42;61.55;100649.38;5044083;28;19912;-79
2023/05/29 04:28:10;;;;;;;;;;;;;;;21.59;60.66;100648.63;5037320;28;19913;-77
2023/05/29 04:31:02;;;;;;;;;;;;;;;21.94;59.63;100656.28;5041105;28;19913;-78
2023/05/29 04:33:54;;;;;;;;;;;;;;;22.14;59.27;100654.72;5043964;28;19912;-78
2023/05/29 04:36:46;;;;;;;;;;;;;;;22.24;58.85;100655.91;5046491;28;20391;-78
2023/05/29 04:39:39;;;;;;;;;;;;;;;22.32;58.47;100658.25;5036187;28;20314;-78
2023/05/29 04:42:33;;;;;;;;;;;;;;;22.37;57.87;100657.06;5039641;28;19912;-78
2023/05/29 04:45:25;;;;;;;;;;;;;;;22.38;57.98;100661.44;5054807;28;20375;-77
2023/05/29 04:48:12;;;;;;;;;;;;;;;22.22;58.68;100664.59;5051694;28;19916;-78
2023/05/29 04:51:02;;;;;;;;;;;;;;;22.30;58.40;100660.63;5041458;28;19912;-78
2023/05/29 04:53:54;;;;;;;;;;;;;;;22.35;58.47;100662.25;5032009;28;19913;-79
2023/05/29 04:56:47;;;;;;;;;;;;;;;22.39;58.12;100668.56;5052510;28;19913;-77
2023/05/29 04:59:45;;;;;;;;;;;;;;;22.42;58.17;100664.97;5046577;28;19917;-77
2023/05/29 05:02:37;;;;;;;;;;;;;;;22.44;57.91;100670.94;5029244;28;19931;-78
2023/05/29 05:05:29;;;;;;;;;;;;;;;22.48;58.15;100668.94;5048596;28;19913;-74
2023/05/29 05:08:21;;;;;;;;;;;;;;;22.39;58.38;100663.81;5049797;28;20367;-77
2023/05/29 05:11:13;;;;;;;;;;;;;;;22.39;58.80;100663.03;5048605;28;19916;-79
2023/05/29 05:14:05;;;;;;;;;;;;;;;22.51;59.51;100662.59;5043249;28;19912;-80
2023/05/29 05:16:57;;;;;;;;;;;;;;;22.57;59.69;100663.78;5044260;28;19920;-79
2023/05/29 05:19:49;;;;;;;;;;;;;;;22.60;59.58;100657.47;5033881;28;19925;-77
2023/05/29 05:22:41;;;;;;;;;;;;;;;22.58;59.29;100657.06;5034273;28;19912;-78
2023/05/29 05:25:33;;;;;;;;;;;;;;;22.55;59.38;100660.63;5032306;28;20375;-78
2023/05/29 05:28:25;;;;;;;;;;;;;;;22.53;59.34;100663.00;5048065;28;20319;-76
2023/05/29 05:31:17;;;;;;;;;;;;;;;22.50;59.53;100656.25;5040078;28;19913;-79
2023/05/29 05:34:09;;;;;;;;;;;;;;;22.50;59.22;100652.72;5042718;28;19917;-78
2023/05/29 05:37:02;;;;;;;;;;;;;;;22.50;59.29;100652.72;5048974;28;20380;-77
2023/05/29 05:39:53;;;;;;;;;;;;;;;22.53;59.22;100651.91;5034038;28;19916;-78
2023/05/29 05:42:45;;;;;;;;;;;;;;;22.54;59.19;100656.28;5039251;28;19912;-76
2023/05/29 05:45:35;;;;;;;;;;;;;;;22.56;58.83;100648.34;5034772;28;19913;-76
2023/05/29 05:48:26;;;;;;;;;;;;;;;22.55;58.64;100649.56;5032832;28;19913;-76
2023/05/29 05:51:19;;;;;;;;;;;;;;;22.57;58.86;100641.63;5035782;28;19917;-77
2023/05/29 05:54:11;;;;;;;;;;;;;;;22.62;58.72;100646.75;5032891;28;19913;-78
2023/05/29 05:57:04;;;;;;;;;;;;;;;22.64;58.63;100643.59;5036818;28;20292;-78
2023/05/29 05:59:56;;;;;;;;;;;;;;;22.66;58.43;100642.00;5035286;28;19917;-79
2023/05/29 06:02:48;;;;;;;;;;;;;;;22.68;58.48;100645.16;5032953;28;19917;-79
2023/05/29 06:05:52;;;;;;;;;;;;;;;22.64;59.00;100646.34;5036595;28;19913;-77
2023/05/29 06:08:44;;;;;;;;;;;;;;;22.66;58.60;100644.75;5033831;28;19913;-78
2023/05/29 06:11:36;;;;;;;;;;;;;;;22.66;58.84;100644.75;5023452;28;19916;-77
2023/05/29 06:14:28;;;;;;;;;;;;;;;22.61;58.88;100645.16;5045397;28;19917;-78
2023/05/29 06:17:21;;;;;;;;;;;;;;;22.63;58.90;100642.00;5038652;28;19913;-78
2023/05/29 06:20:13;;;;;;;;;;;;;;;22.60;58.88;100644.38;5041972;28;19916;-77
2023/05/29 06:23:05;;;;;;;;;;;;;;;22.55;58.86;100644.00;5057788;28;19924;-78
2023/05/29 06:25:57;;;;;;;;;;;;;;;22.54;58.40;100653.50;5041994;28;20364;-77
2023/05/29 06:28:49;;;;;;;;;;;;;;;22.58;58.04;100643.19;5051321;28;19912;-77
2023/05/29 06:31:41;;;;;;;;;;;;;;;22.56;57.87;100642.78;5057644;28;19912;-77
2023/05/29 06:34:31;;;;;;;;;;;;;;;22.57;58.38;100647.16;5051915;28;19913;-79
2023/05/29 06:37:20;;;;;;;;;;;;;;;22.55;58.59;100647.53;5067030;28;19913;-77
2023/05/29 06:40:12;;;;;;;;;;;;;;;22.59;58.85;100650.34;5062162;28;19916;-78
2023/05/29 06:43:05;;;;;;;;;;;;;;;22.59;59.04;100653.91;5065568;28;19913;-77
2023/05/29 06:45:58;;;;;;;;;;;;;;;22.67;58.94;100657.44;5048703;28;19912;-79
2023/05/29 06:48:50;;;;;;;;;;;;;;;22.69;59.13;100654.28;5042175;28;19913;-79
2023/05/29 06:51:42;;;;;;;;;;;;;;;22.75;58.76;100658.25;5037304;28;20379;-78
2023/05/29 06:54:45;;;;;;;;;;;;;;;22.75;58.91;100661.03;5042212;28;19939;-78
2023/05/29 06:57:37;;;;;;;;;;;;;;;22.77;58.91;100656.66;5058144;28;19912;-79
2023/05/29 07:00:29;;;;;;;;;;;;;;;22.83;58.97;100663.38;5047675;28;20224;-78
2023/05/29 07:03:41;;;;;;;;;;;;;;;22.81;58.49;100671.28;5056150;28;19917;-79
2023/05/29 07:06:33;;;;;;;;;;;;;;;22.89;57.61;100663.78;5049122;28;19913;-77
2023/05/29 07:09:25;;;;;;;;;;;;;;;22.95;56.78;100668.50;5050439;28;19913;-78
2023/05/29 07:12:17;;;;;;;;;;;;;;;23.03;53.78;100667.28;5053958;28;20384;-78
2023/05/29 07:15:09;;;;;;;;;;;;;;;23.14;53.67;100667.25;5054664;28;19916;-77
2023/05/29 07:18:01;;;;;;;;;;;;;;;23.23;54.55;100666.81;5038091;28;20500;-78
2023/05/29 07:20:53;;;;;;;;;;;;;;;23.23;55.89;100667.63;5040317;28;19912;-78
2023/05/29 07:23:45;;;;;;;;;;;;;;;23.29;52.89;100660.47;5044934;28;19913;-79
2023/05/29 07:26:37;;;;;;;;;;;;;;;23.37;54.51;100677.84;5044465;28;20295;-79
2023/05/29 07:29:29;;;;;;;;;;;;;;;23.50;52.00;100676.25;5044403;28;19913;-78
2023/05/29 07:32:21;;;;;;;;;;;;;;;23.54;53.28;100676.25;5040238;28;19913;-79
2023/05/29 07:35:13;;;;;;;;;;;;;;;23.66;50.57;100678.56;5026140;28;19913;-77
2023/05/29 07:38:05;;;;;;;;;;;;;;;23.82;49.63;100673.31;5037325;28;19924;-78
2023/05/29 07:40:57;;;;;;;;;;;;;;;23.94;49.46;100681.16;5041000;28;19913;-77
2023/05/29 07:44:01;;;;;;;;;;;;;;;23.99;48.11;100672.41;5059794;28;19913;-77
2023/05/29 07:46:53;;;;;;;;;;;;;;;24.03;48.70;100677.91;5053482;28;19912;-76
2023/05/29 07:50:06;;;;;;;;;;;;;;;23.92;49.63;100669.69;5034805;28;20319;-78
2023/05/29 07:52:58;;;;;;;;;;;;;;;23.71;50.16;100672.59;5022497;28;19913;-79
2023/05/29 07:55:50;;;;;;;;;;;;;;;23.67;50.79;100675.38;5040615;28;19913;-77
2023/05/29 07:58:39;;;;;;;;;;;;;;;23.64;48.99;100676.19;5050489;28;19916;-78
2023/05/29 08:01:31;;;;;;;;;;;;;;;23.91;47.20;100676.44;5056910;28;20383;-78
2023/05/29 08:04:24;;;;;;;;;;;;;;;24.00;45.60;100675.97;5041419;28;20304;-78
2023/05/29 08:07:13;;;;;;;;;;;;;;;24.07;47.06;100681.50;5055324;28;20383;-79
2023/05/29 08:10:06;;;;;;;;;;;;;;;24.24;45.89;100686.94;5102654;22;20409;-78
2023/05/29 08:12:56;;;;;;;;;;;;;;;24.26;45.64;100678.19;5075295;28;19920;-79
2023/05/29 08:15:45;;;;;;;;;;;;;;;24.27;43.92;100677.78;5068635;28;19912;-79
2023/05/29 08:18:37;;;;;;;;;;;;;;;24.25;46.06;100676.59;5065989;28;19924;-78
2023/05/29 08:21:28;;;;;;;;;;;;;;;24.31;45.04;100674.97;5054322;28;19917;-79
2023/05/29 08:24:19;;;;;;;;;;;;;;;24.44;44.08;100681.59;5037392;28;19913;-78
2023/05/29 08:27:09;;;;;;;;;;;;;;;24.57;43.16;100687.47;5053419;28;19912;-79
2023/05/29 08:29:58;;;;;;;;;;;;;;;24.76;42.52;100684.09;5048029;28;20291;-78
2023/05/29 08:32:50;;;;;;;;;;;;;;;24.75;40.64;100692.84;5043260;28;19932;-78
2023/05/29 08:35:37;;;;;;;;;;;;;;;24.83;40.23;100691.59;5047024;28;19913;-78
2023/05/29 08:38:29;;;;;;;;;;;;;;;24.77;42.70;100696.81;5052120;28;19917;-78
2023/05/29 08:41:42;;;;;;;;;;;;;;;24.51;43.12;100700.22;5042541;28;19913;-79
2023/05/29 08:44:32;;;;;;;;;;;;;;;24.30;45.59;100692.84;5045143;28;20291;-78
2023/05/29 08:47:26;;;;;;;;;;;;;;;24.36;43.33;100693.19;5052707;28;20395;-78
2023/05/29 08:50:19;;;;;;;;;;;;;;;24.29;45.64;100696.81;5053141;28;19913;-78
2023/05/29 08:53:08;;;;;;;;;;;;;;;24.16;45.66;100695.72;5056678;28;19912;-78
2023/05/29 08:56:00;;;;;;;;;;;;;;;24.24;45.20;100694.47;5060930;28;19917;-78
2023/05/29 08:58:52;;;;;;;;;;;;;;;24.41;44.37;100698.31;5056891;28;19916;-78
2023/05/29 09:01:43;;;;;;;;;;;;;;;24.56;43.07;100697.00;5054614;28;19917;-78
2023/05/29 09:04:33;;;;;;;;;;;;;;;24.50;44.37;100693.88;5052876;28;20407;-79
2023/05/29 09:07:25;;;;;;;;;;;;;;;24.27;45.36;100685.34;5055176;28;19920;-78
2023/05/29 09:10:18;;;;;;;;;;;;;;;24.29;44.96;100700.38;5041103;28;20388;-78
2023/05/29 09:13:10;;;;;;;;;;;;;;;24.32;44.68;100698.78;5051167;28;19917;-78
2023/05/29 09:16:01;;;;;;;;;;;;;;;24.41;44.89;100693.56;5050934;28;19912;-78
2023/05/29 09:18:53;;;;;;;;;;;;;;;24.58;43.88;100698.16;5054541;28;19917;-78
2023/05/29 09:21:45;;;;;;;;;;;;;;;24.62;44.59;100696.16;5057438;28;19913;-78
2023/05/29 09:24:37;;;;;;;;;;;;;;;24.62;41.99;100696.16;5055500;28;19912;-78
2023/05/29 09:27:29;;;;;;;;;;;;;;;24.84;41.84;100699.50;5053180;28;19921;-79
2023/05/29 09:30:38;;;;;;;;;;;;;;;24.87;41.40;100695.94;5056574;28;20375;-78
2023/05/29 09:33:27;;;;;;;;;;;;;;;24.70;44.10;100703.22;5053597;28;20067;-79
2023/05/29 09:36:25;;;;;;;;;;;;;;;24.93;38.94;100699.06;5057665;28;19913;-79
2023/05/29 09:39:17;;;;;;;;;;;;;;;24.89;42.01;100695.53;5054856;28;19916;-79
2023/05/29 09:42:09;;;;;;;;;;;;;;;24.70;43.27;100706.00;5058753;28;19912;-78
2023/05/29 09:45:02;;;;;;;;;;;;;;;24.54;43.87;100705.75;5056886;28;20380;-79
2023/05/29 09:47:52;;;;;;;;;;;;;;;24.71;40.25;100707.59;5060079;28;20371;-79
2023/05/29 09:50:48;;;;;;;;;;;;;;;24.68;43.98;100711.19;5062259;28;19913;-79
2023/05/29 09:53:42;;;;;;;;;;;;;;;24.52;44.26;100704.59;5048427;28;19913;-79
2023/05/29 09:56:35;;;;;;;;;;;;;;;24.46;44.77;100703.44;5038168;28;19913;-79
2023/05/29 09:59:25;;;;;;;;;;;;;;;24.64;43.06;100710.41;5041126;28;19917;-79
2023/05/29 10:02:17;;;;;;;;;;;;;;;24.71;41.66;100696.47;5042162;28;20360;-78
2023/05/29 10:05:09;;;;;;;;;;;;;;;24.71;43.48;100696.47;5050985;28;19913;-79
2023/05/29 10:08:01;;;;;;;;;;;;;;;24.67;43.12;100697.69;5060832;28;19921;-79
2023/05/29 10:11:17;;;;;;;;;;;;;;;24.68;42.56;100700.06;5058659;28;19912;-79
2023/05/29 10:14:12;;;;;;;;;;;;;;;24.83;41.67;100694.38;5061507;28;19912;-79
2023/05/29 10:17:04;;;;;;;;;;;;;;;24.94;40.44;100695.84;5059466;28;20295;-79
2023/05/29 10:19:58;;;;;;;;;;;;;;;24.80;42.98;100690.41;5059319;28;20371;-79
2023/05/29 10:22:50;;;;;;;;;;;;;;;24.71;42.70;100690.91;5061239;28;19917;-79
2023/05/29 10:25:44;;;;;;;;;;;;;;;24.76;42.19;100689.66;5058227;28;19920;-79
2023/05/29 10:28:38;;;;;;;;;;;;;;;24.89;41.04;100682.38;5062351;28;19916;-79
2023/05/29 10:31:34;;;;;;;;;;;;;;;24.98;41.91;100690.28;5059276;28;19916;-78
2023/05/29 10:34:56;;;;;;;;;;;;;;;25.25;38.71;100677.22;5061981;28;19912;-79
2023/05/29 10:37:55;;;;;;;;;;;;;;;25.60;39.11;100675.25;5042395;28;19913;-79
2023/05/29 10:40:45;;;;;;;;;;;;;;;25.49;40.05;100670.56;5063063;28;19916;-79
2023/05/29 10:43:37;;;;;;;;;;;;;;;25.27;41.37;100665.69;5060963;28;19913;-79
2023/05/29 10:46:48;;;;;;;;;;;;;;;25.32;37.37;100666.00;5057562;28;20364;-79
2023/05/29 10:49:38;;;;;;;;;;;;;;;25.29;41.26;100678.00;5058185;28;19916;-79
2023/05/29 10:52:32;;;;;;;;;;;;;;;25.52;38.54;100669.72;5057710;28;19939;-79
2023/05/29 10:55:35;;;;;;;;;;;;;;;25.45;40.52;100663.44;5055934;28;19912;-78
2023/05/29 10:58:28;;;;;;;;;;;;;;;25.23;41.08;100662.16;5039123;28;19913;-78
2023/05/29 11:01:18;;;;;;;;;;;;;;;25.26;40.45;100656.53;5042753;28;19913;-79
2023/05/29 11:04:19;;;;;;;;;;;;;;;25.21;40.52;100654.22;5039051;28;20368;-79
2023/05/29 11:07:28;;;;;;;;;;;;;;;25.05;41.46;100668.69;5038373;28;19913;-79
2023/05/29 11:10:37;;;;;;;;;;;;;;;25.18;40.36;100662.63;5037889;28;19920;-79
2023/05/29 11:13:29;;;;;;;;;;;;;;;25.27;40.02;100662.88;5038400;28;19913;-79
2023/05/29 11:16:37;;;;;;;;;;;;;;;25.45;39.14;100653.09;5041106;28;19913;-78
2023/05/29 11:19:29;;;;;;;;;;;;;;;25.42;39.87;100655.94;5037062;28;19917;-78
2023/05/29 11:22:25;;;;;;;;;;;;;;;25.52;39.81;100652.22;5068985;28;19916;-79
2023/05/29 11:25:17;;;;;;;;;;;;;;;25.78;38.83;100653.47;5046396;28;19912;-79
2023/05/29 11:28:10;;;;;;;;;;;;;;;25.93;37.37;100652.84;5049012;28;19913;-80
2023/05/29 11:31:04;;;;;;;;;;;;;;;26.08;37.86;100642.25;5052433;28;19913;-79
2023/05/29 11:33:57;;;;;;;;;;;;;;;25.93;39.11;100643.69;5052094;28;19912;-78
2023/05/29 11:36:48;;;;;;;;;;;;;;;26.04;38.13;100641.53;5054203;28;19913;-79
2023/05/29 11:39:40;;;;;;;;;;;;;;;26.21;36.68;100643.22;5059522;28;19936;-79
2023/05/29 11:42:33;;;;;;;;;;;;;;;25.94;39.55;100650.84;5059412;28;19912;-77
2023/05/29 11:45:25;;;;;;;;;;;;;;;25.39;41.03;100642.84;5049652;28;19913;-78
2023/05/29 11:48:15;;;;;;;;;;;;;;;25.36;40.50;100633.34;5057784;28;19913;-79
2023/05/29 11:51:06;;;;;;;;;;;;;;;25.17;41.48;100638.75;5054491;28;19913;-78
2023/05/29 11:54:02;;;;;;;;;;;;;;;25.17;41.19;100633.19;5050937;28;19912;-79
2023/05/29 11:56:54;;;;;;;;;;;;;;;25.18;41.09;100637.56;5046261;28;19913;-78
2023/05/29 11:59:42;;;;;;;;;;;;;;;25.20;41.67;100641.50;5046711;28;19916;-78
2023/05/29 12:02:33;;;;;;;;;;;;;;;25.18;40.25;100632.00;5058874;28;19913;-78
2023/05/29 12:05:25;;;;;;;;;;;;;;;25.13;41.00;100630.47;5062194;28;20303;-79
2023/05/29 12:08:18;;;;;;;;;;;;;;;25.24;40.78;100628.34;5055225;28;20302;-80
2023/05/29 12:11:10;;;;;;;;;;;;;;;25.10;41.99;100634.84;5061404;28;20298;-78
2023/05/29 12:14:00;;;;;;;;;;;;;;;25.15;42.03;100630.81;5043373;28;19913;-79
2023/05/29 12:16:52;;;;;;;;;;;;;;;24.85;42.86;100631.53;5039276;28;19913;-78
2023/05/29 12:19:39;;;;;;;;;;;;;;;24.72;43.16;100624.94;5036270;28;19917;-78
2023/05/29 12:22:40;;;;;;;;;;;;;;;24.60;43.64;100636.56;5034723;28;19917;-79
2023/05/29 12:25:32;;;;;;;;;;;;;;;24.62;43.71;100626.63;5036669;28;20276;-77
2023/05/29 12:28:24;;;;;;;;;;;;;;;24.51;44.05;100628.72;5034680;28;19913;-78
2023/05/29 12:31:27;;;;;;;;;;;;;;;24.35;44.73;100636.81;5037926;28;19913;-78
2023/05/29 12:34:19;;;;;;;;;;;;;;;24.38;44.99;100632.44;5035462;28;19913;-78
2023/05/29 12:37:11;;;;;;;;;;;;;;;24.41;45.11;100628.81;5039761;28;19913;-78
2023/05/29 12:40:16;;;;;;;;;;;;;;;24.28;45.20;100620.19;5034429;28;19925;-77
2023/05/29 12:43:09;;;;;;;;;;;;;;;24.29;45.35;100621.78;5034288;28;19913;-78
2023/05/29 12:46:01;;;;;;;;;;;;;;;24.38;45.23;100618.53;5037948;28;19917;-78
2023/05/29 12:48:53;;;;;;;;;;;;;;;24.51;44.94;100623.16;5035453;28;20305;-78
2023/05/29 12:51:42;;;;;;;;;;;;;;;24.60;44.61;100615.13;5038611;28;19916;-78
2023/05/29 12:54:34;;;;;;;;;;;;;;;24.66;44.09;100613.47;5037016;28;19913;-78
2023/05/29 12:57:24;;;;;;;;;;;;;;;24.60;44.86;100615.13;5034684;28;19972;-78
2023/05/29 13:00:16;;;;;;;;;;;;;;;24.56;44.88;100611.59;5033159;28;19917;-78
2023/05/29 13:03:11;;;;;;;;;;;;;;;24.64;44.58;100593.63;5044212;28;20299;-78
2023/05/29 13:06:00;;;;;;;;;;;;;;;24.78;44.37;100598.25;5053977;28;19913;-78
2023/05/29 13:08:52;;;;;;;;;;;;;;;24.88;43.97;100596.56;5057151;28;19912;-77
2023/05/29 13:11:44;;;;;;;;;;;;;;;24.84;44.45;100588.22;5054672;28;19913;-78
2023/05/29 13:14:36;;;;;;;;;;;;;;;24.77;44.58;100579.19;5053073;28;19916;-78
2023/05/29 13:17:25;;;;;;;;;;;;;;;24.68;44.72;100583.25;5056429;28;19913;-78
2023/05/29 13:20:17;;;;;;;;;;;;;;;24.45;45.24;100574.75;5053182;28;20283;-79
2023/05/29 13:23:09;;;;;;;;;;;;;;;24.40;45.45;100571.63;5058240;28;19913;-79
2023/05/29 13:26:00;;;;;;;;;;;;;;;24.57;44.95;100571.47;5055218;28;19913;-78
2023/05/29 13:28:52;;;;;;;;;;;;;;;24.46;45.17;100570.78;5053373;28;19913;-78
2023/05/29 13:31:44;;;;;;;;;;;;;;;24.53;45.06;100565.13;5057295;28;19912;-78
2023/05/29 13:34:36;;;;;;;;;;;;;;;24.61;44.78;100555.53;5054969;28;19916;-78
2023/05/29 13:37:28;;;;;;;;;;;;;;;24.52;45.23;100560.00;5052857;28;19913;-78
2023/05/29 13:40:20;;;;;;;;;;;;;;;24.48;45.40;100554.47;5052233;28;19917;-78
2023/05/29 13:43:12;;;;;;;;;;;;;;;24.44;45.43;100552.94;5053915;28;20379;-78
2023/05/29 13:46:03;;;;;;;;;;;;;;;24.46;45.49;100547.75;5057619;28;19912;-78
2023/05/29 13:48:55;;;;;;;;;;;;;;;24.45;45.76;100546.97;5055722;28;19912;-78
2023/05/29 13:51:45;;;;;;;;;;;;;;;24.30;45.95;100548.31;5040444;28;20408;-78
2023/05/29 13:54:35;;;;;;;;;;;;;;;24.28;45.90;100547.91;5042591;28;19913;-78
2023/05/29 13:57:27;;;;;;;;;;;;;;;24.37;45.75;100528.78;5036936;28;20288;-79
2023/05/29 14:00:17;;;;;;;;;;;;;;;24.23;46.20;100528.91;5032499;28;19917;-79
2023/05/29 14:03:09;;;;;;;;;;;;;;;24.10;46.51;100536.16;5036707;28;19913;-78
2023/05/29 14:06:01;;;;;;;;;;;;;;;24.19;46.14;100528.16;5053382;28;19913;-79
2023/05/29 14:08:53;;;;;;;;;;;;;;;24.22;46.17;100530.94;5070139;22;19921;-81
2023/05/29 14:11:45;;;;;;;;;;;;;;;24.19;46.43;100523.41;5029886;28;19921;-80
2023/05/29 14:14:37;;;;;;;;;;;;;;;24.15;46.35;100530.16;5031401;28;19912;-80
2023/05/29 14:17:29;;;;;;;;;;;;;;;24.02;46.75;100529.91;5035481;28;20372;-80
2023/05/29 14:20:18;;;;;;;;;;;;;;;24.02;46.86;100535.47;5029181;28;19917;-80
2023/05/29 14:23:13;;;;;;;;;;;;;;;24.00;46.98;100535.06;5034368;28;20300;-80
2023/05/29 14:26:02;;;;;;;;;;;;;;;24.04;46.93;100537.81;5040297;28;20283;-80
2023/05/29 14:28:54;;;;;;;;;;;;;;;24.06;47.10;100535.41;5037665;28;19917;-80
2023/05/29 14:31:46;;;;;;;;;;;;;;;24.04;47.30;100535.03;5041267;28;19913;-80
2023/05/29 14:34:38;;;;;;;;;;;;;;;24.08;47.16;100533.78;5038204;28;19913;-80
2023/05/29 14:37:28;;;;;;;;;;;;;;;24.08;47.24;100542.13;5039971;28;19913;-80
2023/05/29 14:40:20;;;;;;;;;;;;;;;24.04;47.62;100537.81;5040716;28;20380;-81
2023/05/29 14:43:12;;;;;;;;;;;;;;;24.13;47.26;100540.91;5042535;28;19913;-80
2023/05/29 14:46:04;;;;;;;;;;;;;;;24.11;47.38;100538.56;5040299;28;19917;-81